Time,TemperatureF,DewpointF,PressureIn,WindDirection,WindDirectionDegrees,WindSpeedMPH,WindSpeedGustMPH,Humidity,HourlyPrecipIn,Conditions,Clouds,dailyrainin,SolarRadiationWatts/m^2,SoftwareType,DateUTC
2013-03-18 01:00:00,27.0,19.0,-100.00,East,90,11.0,-999.0,71,-99.99,,,-99.99,0.000000,,2013-03-18 05:00:00,
2013-03-18 01:43:00,27.0,19.0,-100.00,East,90,11.0,-999.0,71,-99.99,,,-99.99,0.000000,,2013-03-18 05:43:00,
2013-03-18 01:52:00,27.0,19.0,-100.00,East,90,11.0,-999.0,71,-99.99,,,-99.99,0.000000,,2013-03-18 05:52:00,
2013-03-18 02:00:00,27.0,19.0,-100.00,East,90,9.0,-999.0,72,-99.99,,,-99.99,0.000000,,2013-03-18 06:00:00,
2013-03-18 02:42:00,27.0,19.0,-100.00,East,90,9.0,-999.0,72,-99.99,,,-99.99,0.000000,,2013-03-18 06:42:00,
2013-03-18 02:52:00,27.0,19.0,-100.00,East,90,9.0,-999.0,72,-99.99,,,-99.99,0.000000,,2013-03-18 06:52:00,
2013-03-18 03:00:00,27.0,20.0,-100.00,East,90,10.0,-999.0,74,-99.99,,,-99.99,0.000000,,2013-03-18 07:00:00,
2013-03-18 03:43:00,27.0,20.0,-100.00,East,90,10.0,-999.0,74,-99.99,,,-99.99,0.000000,,2013-03-18 07:43:00,
2013-03-18 03:53:00,27.0,20.0,-100.00,East,90,10.0,-999.0,74,-99.99,,,-99.99,0.000000,,2013-03-18 07:53:00,
2013-03-18 04:00:00,27.0,20.0,-100.00,ENE,67,9.0,-999.0,76,-99.99,,,-99.99,0.000000,,2013-03-18 08:00:00,
2013-03-18 04:43:00,27.0,20.0,-100.00,ENE,67,9.0,-999.0,76,-99.99,,,-99.99,0.000000,,2013-03-18 08:43:00,
2013-03-18 04:53:00,27.0,20.0,-100.00,ENE,67,9.0,-999.0,76,-99.99,,,-99.99,0.000000,,2013-03-18 08:53:00,
2013-03-18 05:00:00,27.0,21.0,-100.00,ENE,67,10.0,-999.0,77,-99.99,,,-99.99,0.000000,,2013-03-18 09:00:00,
2013-03-18 05:43:00,27.0,21.0,-100.00,ENE,67,10.0,-999.0,77,-99.99,,,-99.99,0.000000,,2013-03-18 09:43:00,
2013-03-18 05:53:00,27.0,21.0,-100.00,ENE,67,10.0,-999.0,77,-99.99,,,-99.99,0.000000,,2013-03-18 09:53:00,
2013-03-18 06:00:00,27.0,21.0,-100.00,ENE,67,10.0,-999.0,77,-99.99,,,-99.99,0.000000,,2013-03-18 10:00:00,
2013-03-18 06:42:00,27.0,21.0,-100.00,ENE,67,10.0,-999.0,77,-99.99,,,-99.99,0.000000,,2013-03-18 10:42:00,
2013-03-18 06:53:00,27.0,21.0,-100.00,ENE,67,10.0,-999.0,77,-99.99,,,-99.99,0.000000,,2013-03-18 10:53:00,
2013-03-18 07:00:00,27.0,21.0,-100.00,ENE,67,9.0,-999.0,77,-99.99,,,-99.99,0.000000,,2013-03-18 11:00:00,
2013-03-18 07:43:00,27.0,21.0,-100.00,ENE,67,9.0,-999.0,77,-99.99,,,-99.99,0.000000,,2013-03-18 11:43:00,
2013-03-18 07:52:00,27.0,21.0,-100.00,ENE,67,9.0,-999.0,77,-99.99,,,-99.99,0.000000,,2013-03-18 11:52:00,
2013-03-18 08:00:00,27.0,23.0,-100.00,ENE,67,11.0,-999.0,84,-99.99,,,-99.99,0.000000,,2013-03-18 12:00:00,
2013-03-18 08:43:00,27.0,23.0,-100.00,ENE,67,11.0,-999.0,84,-99.99,,,-99.99,0.000000,,2013-03-18 12:43:00,
2013-03-18 08:52:00,27.0,23.0,-100.00,ENE,67,11.0,-999.0,84,-99.99,,,-99.99,0.000000,,2013-03-18 12:52:00,
2013-03-18 09:00:00,27.0,24.0,-100.00,ENE,67,11.0,-999.0,86,-99.99,,,-99.99,16.240000,,2013-03-18 13:00:00,
2013-03-18 09:42:00,27.0,24.0,-100.00,ENE,67,11.0,-999.0,86,-99.99,,,-99.99,16.240000,,2013-03-18 13:42:00,
2013-03-18 09:52:00,27.0,24.0,-100.00,ENE,67,11.0,-999.0,86,-99.99,,,-99.99,16.240000,,2013-03-18 13:52:00,
2013-03-18 10:00:00,29.0,25.0,-100.00,ENE,67,12.0,-999.0,86,-99.99,,,-99.99,125.279999,,2013-03-18 14:00:00,
2013-03-18 10:42:00,29.0,25.0,-100.00,ENE,67,12.0,-999.0,86,-99.99,,,-99.99,125.279999,,2013-03-18 14:42:00,
2013-03-18 10:52:00,29.0,25.0,-100.00,ENE,67,12.0,-999.0,86,-99.99,,,-99.99,125.279999,,2013-03-18 14:52:00,
2013-03-18 11:00:00,29.0,27.0,-100.00,East,90,12.0,-999.0,90,-99.99,,,-99.99,109.040001,,2013-03-18 15:00:00,
2013-03-18 11:43:00,29.0,27.0,-100.00,East,90,12.0,-999.0,90,-99.99,,,-99.99,109.040001,,2013-03-18 15:43:00,
2013-03-18 11:52:00,29.0,27.0,-100.00,East,90,12.0,-999.0,90,-99.99,,,-99.99,109.040001,,2013-03-18 15:52:00,
2013-03-18 12:00:00,30.0,29.0,-100.00,East,90,11.0,-999.0,97,-99.99,,,-99.99,88.160004,,2013-03-18 16:00:00,
2013-03-18 12:42:00,30.0,29.0,-100.00,East,90,11.0,-999.0,97,-99.99,,,-99.99,88.160004,,2013-03-18 16:42:00,
2013-03-18 12:53:00,30.0,29.0,-100.00,East,90,11.0,-999.0,97,-99.99,,,-99.99,88.160004,,2013-03-18 16:53:00,
2013-03-18 13:00:00,30.0,30.0,-100.00,East,90,9.0,-999.0,99,-99.99,,,-99.99,80.040001,,2013-03-18 17:00:00,
2013-03-18 13:43:00,30.0,30.0,-100.00,East,90,9.0,-999.0,99,-99.99,,,-99.99,80.040001,,2013-03-18 17:43:00,
2013-03-18 13:52:00,30.0,30.0,-100.00,East,90,9.0,-999.0,99,-99.99,,,-99.99,80.040001,,2013-03-18 17:52:00,
2013-03-18 16:00:00,32.0,32.0,-100.00,SE,135,4.0,-999.0,102,0.03,,,-99.99,59.160000,,2013-03-18 20:00:00,
2013-03-18 16:43:00,32.0,32.0,-100.00,SE,135,4.0,-999.0,102,0.03,,,-99.99,59.160000,,2013-03-18 20:43:00,
2013-03-18 16:52:00,32.0,32.0,-100.00,SE,135,4.0,-999.0,102,0.03,,,-99.99,59.160000,,2013-03-18 20:52:00,
2013-03-18 17:00:00,33.0,33.0,-100.00,SSE,157,3.0,-999.0,102,0.02,,,-99.99,77.720001,,2013-03-18 21:00:00,
2013-03-18 17:43:00,33.0,33.0,-100.00,SSE,157,3.0,-999.0,102,0.02,,,-99.99,77.720001,,2013-03-18 21:43:00,
2013-03-18 17:53:00,33.0,33.0,-100.00,SSE,157,3.0,-999.0,102,0.02,,,-99.99,77.720001,,2013-03-18 21:53:00,
2013-03-18 18:00:00,33.0,33.0,-100.00,SSW,202,5.0,-999.0,102,0.01,,,-99.99,58.000000,,2013-03-18 22:00:00,
2013-03-18 18:42:00,33.0,33.0,-100.00,SSW,202,5.0,-999.0,102,0.01,,,-99.99,58.000000,,2013-03-18 22:42:00,
2013-03-18 18:53:00,33.0,33.0,-100.00,SSW,202,5.0,-999.0,102,0.01,,,-99.99,58.000000,,2013-03-18 22:53:00,
2013-03-18 22:00:00,33.0,33.0,-100.00,SW,225,10.0,-999.0,98,-99.99,,,-99.99,0.000000,,2013-03-19 02:00:00,
2013-03-18 22:43:00,33.0,33.0,-100.00,SW,225,10.0,-999.0,98,-99.99,,,-99.99,0.000000,,2013-03-19 02:43:00,
2013-03-18 22:53:00,33.0,33.0,-100.00,SW,225,10.0,-999.0,98,-99.99,,,-99.99,0.000000,,2013-03-19 02:53:00,
2013-03-18 23:00:00,31.0,28.0,-100.00,SW,225,15.0,-999.0,88,-99.99,,,-99.99,0.000000,,2013-03-19 03:00:00,
2013-03-18 23:43:00,31.0,28.0,-100.00,SW,225,15.0,-999.0,88,-99.99,,,-99.99,0.000000,,2013-03-19 03:43:00,
2013-03-18 23:54:00,31.0,28.0,-100.00,SW,225,15.0,-999.0,88,-99.99,,,-99.99,0.000000,,2013-03-19 03:54:00,